sensor_id;sensor_type;location;lat;lon;timestamp;pressure;altitude;pressure_sealevel;temperature;humidity
31585;BME280;18191;51.288;12.390;2023-04-03T00:01:18;49120.25;;;-144.47;64.91
31585;BME280;18191;51.288;12.390;2023-04-03T00:06:09;49082.44;;;-144.47;64.86
31585;BME280;18191;51.288;12.390;2023-04-03T00:11:00;49108.31;;;-144.47;65.68
31585;BME280;18191;51.288;12.390;2023-04-03T00:15:51;49088.41;;;-144.47;65.19
31585;BME280;18191;51.288;12.390;2023-04-03T00:20:41;49064.53;;;-144.47;66.06
31585;BME280;18191;51.288;12.390;2023-04-03T00:25:31;49108.31;;;-144.47;65.05
31585;BME280;18191;51.288;12.390;2023-04-03T00:30:22;49092.38;;;-144.47;65.22
31585;BME280;18191;51.288;12.390;2023-04-03T00:35:12;49082.44;;;-144.47;65.65
31585;BME280;18191;51.288;12.390;2023-04-03T00:40:05;49084.44;;;-144.47;64.89
31585;BME280;18191;51.288;12.390;2023-04-03T00:49:46;49112.28;;;-144.47;65.54
31585;BME280;18191;51.288;12.390;2023-04-03T00:54:36;49082.44;;;-144.47;66.38
31585;BME280;18191;51.288;12.390;2023-04-03T00:59:29;49074.47;;;-144.47;66.04
31585;BME280;18191;51.288;12.390;2023-04-03T01:04:28;49132.16;;;-144.47;66.21
31585;BME280;18191;51.288;12.390;2023-04-03T01:09:19;49084.44;;;-144.47;67.00
31585;BME280;18191;51.288;12.390;2023-04-03T01:14:09;49084.44;;;-144.47;67.48
31585;BME280;18191;51.288;12.390;2023-04-03T01:19:00;49108.31;;;-144.47;67.02
31585;BME280;18191;51.288;12.390;2023-04-03T01:23:53;49136.16;;;-144.47;68.58
31585;BME280;18191;51.288;12.390;2023-04-03T01:28:47;49088.41;;;-144.47;68.04
31585;BME280;18191;51.288;12.390;2023-04-03T01:33:38;49086.41;;;-144.47;68.50
31585;BME280;18191;51.288;12.390;2023-04-03T01:38:28;49088.41;;;-144.47;68.83
31585;BME280;18191;51.288;12.390;2023-04-03T01:43:18;49086.41;;;-144.47;69.41
31585;BME280;18191;51.288;12.390;2023-04-03T01:48:08;49112.28;;;-144.47;69.89
31585;BME280;18191;51.288;12.390;2023-04-03T01:52:58;49088.41;;;-144.47;69.98
31585;BME280;18191;51.288;12.390;2023-04-03T01:57:49;49132.16;;;-144.47;69.51
31585;BME280;18191;51.288;12.390;2023-04-03T02:02:39;49124.22;;;-144.47;70.44
31585;BME280;18191;51.288;12.390;2023-04-03T02:07:29;49124.22;;;-144.47;70.41
31585;BME280;18191;51.288;12.390;2023-04-03T02:12:19;49086.41;;;-144.47;69.84
31585;BME280;18191;51.288;12.390;2023-04-03T02:17:10;49084.44;;;-144.47;70.48
31585;BME280;18191;51.288;12.390;2023-04-03T02:22:01;49070.50;;;-144.47;70.40
31585;BME280;18191;51.288;12.390;2023-04-03T02:26:51;49126.22;;;-144.47;69.83
31585;BME280;18191;51.288;12.390;2023-04-03T02:31:41;49084.44;;;-144.47;70.35
31585;BME280;18191;51.288;12.390;2023-04-03T02:36:31;49104.31;;;-144.47;70.37
31585;BME280;18191;51.288;12.390;2023-04-03T02:41:22;49112.28;;;-144.47;70.83
31585;BME280;18191;51.288;12.390;2023-04-03T02:46:12;49110.28;;;-144.47;71.46
31585;BME280;18191;51.288;12.390;2023-04-03T02:51:04;49112.28;;;-144.47;71.84
31585;BME280;18191;51.288;12.390;2023-04-03T02:55:55;49076.47;;;-144.47;72.51
31585;BME280;18191;51.288;12.390;2023-04-03T03:00:45;49072.50;;;-144.47;72.95
31585;BME280;18191;51.288;12.390;2023-04-03T03:05:36;49140.13;;;-144.47;73.43
31585;BME280;18191;51.288;12.390;2023-04-03T03:10:27;49080.44;;;-144.47;72.98
31585;BME280;18191;51.288;12.390;2023-04-03T03:15:17;49136.16;;;-144.47;73.71
31585;BME280;18191;51.288;12.390;2023-04-03T03:20:09;49112.28;;;-144.47;74.15
31585;BME280;18191;51.288;12.390;2023-04-03T03:24:59;49108.31;;;-144.47;74.62
31585;BME280;18191;51.288;12.390;2023-04-03T03:29:50;49156.03;;;-144.47;74.54
31585;BME280;18191;51.288;12.390;2023-04-03T03:34:40;49070.50;;;-144.47;75.33
31585;BME280;18191;51.288;12.390;2023-04-03T03:39:31;49084.44;;;-144.47;75.33
31585;BME280;18191;51.288;12.390;2023-04-03T03:44:21;49156.03;;;-144.47;75.13
31585;BME280;18191;51.288;12.390;2023-04-03T03:49:11;49120.25;;;-144.47;75.77
31585;BME280;18191;51.288;12.390;2023-04-03T03:54:01;49060.56;;;-144.47;75.89
31585;BME280;18191;51.288;12.390;2023-04-03T03:58:51;49096.38;;;-144.47;76.31
31585;BME280;18191;51.288;12.390;2023-04-03T04:03:42;49158.03;;;-144.47;76.43
31585;BME280;18191;51.288;12.390;2023-04-03T04:08:32;49120.25;;;-144.47;77.25
31585;BME280;18191;51.288;12.390;2023-04-03T04:13:23;49104.31;;;-144.47;77.78
31585;BME280;18191;51.288;12.390;2023-04-03T04:18:13;49132.16;;;-144.47;78.06
31585;BME280;18191;51.288;12.390;2023-04-03T04:23:03;49072.50;;;-144.47;78.24
31585;BME280;18191;51.288;12.390;2023-04-03T04:27:53;49108.31;;;-144.47;78.39
31585;BME280;18191;51.288;12.390;2023-04-03T04:32:43;49096.38;;;-144.47;77.99
31585;BME280;18191;51.288;12.390;2023-04-03T04:37:33;49116.25;;;-144.47;78.37
31585;BME280;18191;51.288;12.390;2023-04-03T04:42:24;49100.34;;;-144.47;77.91
31585;BME280;18191;51.288;12.390;2023-04-03T04:47:14;49120.25;;;-144.47;78.16
31585;BME280;18191;51.288;12.390;2023-04-03T04:52:04;49096.38;;;-144.47;77.40
31585;BME280;18191;51.288;12.390;2023-04-03T04:56:55;49120.25;;;-144.47;76.86
31585;BME280;18191;51.288;12.390;2023-04-03T05:01:45;49175.94;;;-144.47;77.51
31585;BME280;18191;51.288;12.390;2023-04-03T05:06:36;49140.13;;;-144.47;76.79
31585;BME280;18191;51.288;12.390;2023-04-03T05:11:26;49132.16;;;-144.47;76.50
31585;BME280;18191;51.288;12.390;2023-04-03T05:16:17;49108.31;;;-144.47;77.15
31585;BME280;18191;51.288;12.390;2023-04-03T05:21:07;49112.28;;;-144.47;76.26
31585;BME280;18191;51.288;12.390;2023-04-03T05:25:57;49092.38;;;-144.47;75.68
31585;BME280;18191;51.288;12.390;2023-04-03T05:30:55;49156.03;;;-144.47;75.38
31585;BME280;18191;51.288;12.390;2023-04-03T05:35:45;49098.34;;;-144.47;76.40
31585;BME280;18191;51.288;12.390;2023-04-03T05:40:36;49112.28;;;-144.47;74.64
31585;BME280;18191;51.288;12.390;2023-04-03T05:45:26;49082.44;;;-144.47;74.51
31585;BME280;18191;51.288;12.390;2023-04-03T05:50:17;49116.25;;;-144.47;74.19
31585;BME280;18191;51.288;12.390;2023-04-03T05:55:07;49100.34;;;-144.47;73.86
31585;BME280;18191;51.288;12.390;2023-04-03T05:59:57;49088.41;;;-144.47;72.46
31585;BME280;18191;51.288;12.390;2023-04-03T06:04:47;49104.31;;;-144.47;71.94
31585;BME280;18191;51.288;12.390;2023-04-03T06:09:38;49080.44;;;-144.47;71.70
31585;BME280;18191;51.288;12.390;2023-04-03T06:14:28;49140.13;;;-144.47;70.95
31585;BME280;18191;51.288;12.390;2023-04-03T06:19:19;49144.09;;;-144.47;70.71
31585;BME280;18191;51.288;12.390;2023-04-03T06:24:11;49096.38;;;-144.47;70.91
31585;BME280;18191;51.288;12.390;2023-04-03T06:29:02;49112.28;;;-144.47;70.32
31585;BME280;18191;51.288;12.390;2023-04-03T06:33:52;49090.41;;;-144.47;69.81
31585;BME280;18191;51.288;12.390;2023-04-03T06:38:42;49132.16;;;-144.47;68.82
31585;BME280;18191;51.288;12.390;2023-04-03T06:43:34;49080.44;;;-144.47;68.63
31585;BME280;18191;51.288;12.390;2023-04-03T06:48:24;49056.59;;;-144.47;67.70
31585;BME280;18191;51.288;12.390;2023-04-03T06:53:14;49088.41;;;-144.47;67.82
31585;BME280;18191;51.288;12.390;2023-04-03T06:58:04;49080.44;;;-144.47;67.44
31585;BME280;18191;51.288;12.390;2023-04-03T07:02:55;49084.44;;;-144.47;67.06
31585;BME280;18191;51.288;12.390;2023-04-03T07:07:46;49072.50;;;-144.47;66.38
31585;BME280;18191;51.288;12.390;2023-04-03T07:12:36;49074.47;;;-144.47;64.77
31585;BME280;18191;51.288;12.390;2023-04-03T07:17:27;49072.50;;;-144.47;64.49
31585;BME280;18191;51.288;12.390;2023-04-03T07:22:18;49084.44;;;-144.47;63.50
31585;BME280;18191;51.288;12.390;2023-04-03T07:27:08;49100.34;;;-144.47;63.17
31585;BME280;18191;51.288;12.390;2023-04-03T07:31:58;49096.38;;;-144.47;61.81
31585;BME280;18191;51.288;12.390;2023-04-03T07:36:48;49048.63;;;-144.47;61.15
31585;BME280;18191;51.288;12.390;2023-04-03T07:41:39;49112.28;;;-144.47;58.91
31585;BME280;18191;51.288;12.390;2023-04-03T07:46:29;49076.47;;;-144.47;58.64
31585;BME280;18191;51.288;12.390;2023-04-03T07:51:20;49032.72;;;-144.47;58.71
31585;BME280;18191;51.288;12.390;2023-04-03T07:56:10;49084.44;;;-144.47;56.80
31585;BME280;18191;51.288;12.390;2023-04-03T08:01:01;49064.53;;;-144.47;58.17
31585;BME280;18191;51.288;12.390;2023-04-03T08:05:51;49028.72;;;-144.47;56.52
31585;BME280;18191;51.288;12.390;2023-04-03T08:10:43;49048.63;;;-144.47;55.51
31585;BME280;18191;51.288;12.390;2023-04-03T08:15:33;49098.34;;;-144.47;51.55
31585;BME280;18191;51.288;12.390;2023-04-03T08:20:24;49062.56;;;-144.47;53.69
31585;BME280;18191;51.288;12.390;2023-04-03T08:25:14;49056.59;;;-144.47;52.98
31585;BME280;18191;51.288;12.390;2023-04-03T08:30:05;49088.41;;;-144.47;49.62
31585;BME280;18191;51.288;12.390;2023-04-03T08:34:56;49076.47;;;-144.47;50.51
31585;BME280;18191;51.288;12.390;2023-04-03T08:39:46;49048.63;;;-144.47;50.68
31585;BME280;18191;51.288;12.390;2023-04-03T08:44:48;49064.53;;;-144.47;53.29
31585;BME280;18191;51.288;12.390;2023-04-03T08:49:45;49068.50;;;-144.47;49.64
31585;BME280;18191;51.288;12.390;2023-04-03T08:59:38;49082.44;;;-144.47;49.00
31585;BME280;18191;51.288;12.390;2023-04-03T09:04:29;49082.44;;;-144.47;44.89
31585;BME280;18191;51.288;12.390;2023-04-03T09:09:29;49032.72;;;-144.47;47.15
31585;BME280;18191;51.288;12.390;2023-04-03T09:14:35;49036.69;;;-144.47;45.78
31585;BME280;18191;51.288;12.390;2023-04-03T09:19:37;49042.66;;;-144.47;42.50
31585;BME280;18191;51.288;12.390;2023-04-03T09:24:31;49044.66;;;-144.47;41.10
31585;BME280;18191;51.288;12.390;2023-04-03T09:29:23;49044.66;;;-144.47;39.95
31585;BME280;18191;51.288;12.390;2023-04-03T09:34:26;49036.69;;;-144.47;39.95
31585;BME280;18191;51.288;12.390;2023-04-03T09:39:22;49052.59;;;-144.47;38.82
31585;BME280;18191;51.288;12.390;2023-04-03T09:44:20;49016.78;;;-144.47;37.51
31585;BME280;18191;51.288;12.390;2023-04-03T09:49:11;49050.63;;;-144.47;37.33
31585;BME280;18191;51.288;12.390;2023-04-03T09:54:01;49016.78;;;-144.47;39.73
31585;BME280;18191;51.288;12.390;2023-04-03T09:59:14;49060.56;;;-144.47;40.01
31585;BME280;18191;51.288;12.390;2023-04-03T10:04:14;49076.47;;;-144.47;40.37
31585;BME280;18191;51.288;12.390;2023-04-03T10:09:05;49044.66;;;-144.47;38.44
31585;BME280;18191;51.288;12.390;2023-04-03T10:14:00;49048.63;;;-144.47;38.79
31585;BME280;18191;51.288;12.390;2023-04-03T10:28:57;49052.59;;;-144.47;37.65
31585;BME280;18191;51.288;12.390;2023-04-03T10:33:55;49036.69;;;-144.47;38.45
31585;BME280;18191;51.288;12.390;2023-04-03T10:38:51;49088.41;;;-144.47;35.33
31585;BME280;18191;51.288;12.390;2023-04-03T10:48:49;49078.47;;;-144.47;36.87
31585;BME280;18191;51.288;12.390;2023-04-03T10:53:55;49036.69;;;-144.47;36.26
31585;BME280;18191;51.288;12.390;2023-04-03T10:58:51;49044.66;;;-144.47;35.13
31585;BME280;18191;51.288;12.390;2023-04-03T11:03:45;49000.88;;;-144.47;35.83
31585;BME280;18191;51.288;12.390;2023-04-03T11:13:40;49050.63;;;-144.47;36.03
31585;BME280;18191;51.288;12.390;2023-04-03T11:23:52;49028.72;;;-144.47;37.82
31585;BME280;18191;51.288;12.390;2023-04-03T11:28:43;49052.59;;;-144.47;38.54
31585;BME280;18191;51.288;12.390;2023-04-03T11:33:43;49056.59;;;-144.47;37.94
31585;BME280;18191;51.288;12.390;2023-04-03T11:38:35;49034.69;;;-144.47;36.77
31585;BME280;18191;51.288;12.390;2023-04-03T11:43:27;49012.81;;;-144.47;38.14
31585;BME280;18191;51.288;12.390;2023-04-03T12:02:52;49064.53;;;-144.47;36.82
31585;BME280;18191;51.288;12.390;2023-04-03T12:07:42;49036.69;;;-144.47;38.42
31585;BME280;18191;51.288;12.390;2023-04-03T12:17:23;49056.59;;;-144.47;35.47
31585;BME280;18191;51.288;12.390;2023-04-03T12:22:17;49044.66;;;-144.47;36.38
31585;BME280;18191;51.288;12.390;2023-04-03T12:27:16;49000.88;;;-144.47;36.53
31585;BME280;18191;51.288;12.390;2023-04-03T12:37:21;49010.81;;;-144.47;34.83
31585;BME280;18191;51.288;12.390;2023-04-03T12:47:25;49020.78;;;-144.47;34.79
31585;BME280;18191;51.288;12.390;2023-04-03T12:57:33;49064.53;;;-144.47;35.77
31585;BME280;18191;51.288;12.390;2023-04-03T13:02:27;49018.78;;;-144.47;35.50
31585;BME280;18191;51.288;12.390;2023-04-03T13:07:19;49048.63;;;-144.47;37.46
31585;BME280;18191;51.288;12.390;2023-04-03T13:12:10;49036.69;;;-144.47;36.31
31585;BME280;18191;51.288;12.390;2023-04-03T13:17:12;49028.72;;;-144.47;36.76
31585;BME280;18191;51.288;12.390;2023-04-03T13:22:04;49024.75;;;-144.47;37.12
31585;BME280;18191;51.288;12.390;2023-04-03T13:26:55;49000.88;;;-144.47;36.17
31585;BME280;18191;51.288;12.390;2023-04-03T13:31:46;49020.78;;;-144.47;37.46
31585;BME280;18191;51.288;12.390;2023-04-03T13:36:37;49012.81;;;-144.47;36.90
31585;BME280;18191;51.288;12.390;2023-04-03T13:41:32;49008.84;;;-144.47;37.71
31585;BME280;18191;51.288;12.390;2023-04-03T13:46:24;49012.81;;;-144.47;37.50
31585;BME280;18191;51.288;12.390;2023-04-03T13:51:23;49040.66;;;-144.47;37.73
31585;BME280;18191;51.288;12.390;2023-04-03T13:56:23;49032.72;;;-144.47;37.34
31585;BME280;18191;51.288;12.390;2023-04-03T14:01:18;49020.78;;;-144.47;37.85
31585;BME280;18191;51.288;12.390;2023-04-03T14:06:11;49010.81;;;-144.47;36.84
31585;BME280;18191;51.288;12.390;2023-04-03T14:11:02;49020.78;;;-144.47;37.16
31585;BME280;18191;51.288;12.390;2023-04-03T14:15:52;49040.66;;;-144.47;35.59
31585;BME280;18191;51.288;12.390;2023-04-03T14:20:43;49024.75;;;-144.47;37.34
31585;BME280;18191;51.288;12.390;2023-04-03T14:25:33;49032.72;;;-144.47;37.03
31585;BME280;18191;51.288;12.390;2023-04-03T14:30:26;49048.63;;;-144.47;36.84
31585;BME280;18191;51.288;12.390;2023-04-03T14:35:18;49066.53;;;-144.47;37.46
31585;BME280;18191;51.288;12.390;2023-04-03T14:40:11;49020.78;;;-144.47;39.03
31585;BME280;18191;51.288;12.390;2023-04-03T14:45:05;49036.69;;;-144.47;38.41
31585;BME280;18191;51.288;12.390;2023-04-03T14:49:55;49050.63;;;-144.47;38.25
31585;BME280;18191;51.288;12.390;2023-04-03T14:54:46;49028.72;;;-144.47;39.85
31585;BME280;18191;51.288;12.390;2023-04-03T14:59:36;49028.72;;;-144.47;38.58
31585;BME280;18191;51.288;12.390;2023-04-03T15:04:26;49012.81;;;-144.47;38.97
31585;BME280;18191;51.288;12.390;2023-04-03T15:09:24;49036.69;;;-144.47;38.17
31585;BME280;18191;51.288;12.390;2023-04-03T15:14:15;49044.66;;;-144.47;38.64
31585;BME280;18191;51.288;12.390;2023-04-03T15:19:05;49040.66;;;-144.47;39.09
31585;BME280;18191;51.288;12.390;2023-04-03T15:23:56;49020.78;;;-144.47;39.13
31585;BME280;18191;51.288;12.390;2023-04-03T15:28:46;48996.91;;;-144.47;39.11
31585;BME280;18191;51.288;12.390;2023-04-03T15:33:36;48984.97;;;-144.47;38.09
31585;BME280;18191;51.288;12.390;2023-04-03T15:38:26;49028.72;;;-144.47;38.52
31585;BME280;18191;51.288;12.390;2023-04-03T15:43:17;49040.66;;;-144.47;37.87
31585;BME280;18191;51.288;12.390;2023-04-03T15:48:07;49020.78;;;-144.47;37.44
31585;BME280;18191;51.288;12.390;2023-04-03T15:52:58;49008.84;;;-144.47;37.92
31585;BME280;18191;51.288;12.390;2023-04-03T15:57:48;49040.66;;;-144.47;38.85
31585;BME280;18191;51.288;12.390;2023-04-03T16:02:38;49016.78;;;-144.47;37.80
31585;BME280;18191;51.288;12.390;2023-04-03T16:07:29;49024.75;;;-144.47;37.78
31585;BME280;18191;51.288;12.390;2023-04-03T16:12:20;49048.63;;;-144.47;38.44
31585;BME280;18191;51.288;12.390;2023-04-03T16:17:10;49034.69;;;-144.47;38.51
31585;BME280;18191;51.288;12.390;2023-04-03T16:22:00;49020.78;;;-144.47;38.98
31585;BME280;18191;51.288;12.390;2023-04-03T16:26:51;49058.56;;;-144.47;39.16
31585;BME280;18191;51.288;12.390;2023-04-03T16:31:43;49012.81;;;-144.47;39.15
31585;BME280;18191;51.288;12.390;2023-04-03T16:36:33;49052.59;;;-144.47;40.50
31585;BME280;18191;51.288;12.390;2023-04-03T16:41:25;49044.66;;;-144.47;40.12
31585;BME280;18191;51.288;12.390;2023-04-03T16:46:15;49088.41;;;-144.47;40.80
31585;BME280;18191;51.288;12.390;2023-04-03T16:51:05;49004.84;;;-144.47;40.47
31585;BME280;18191;51.288;12.390;2023-04-03T16:55:57;49044.66;;;-144.47;39.97
31585;BME280;18191;51.288;12.390;2023-04-03T17:00:47;49040.66;;;-144.47;40.74
31585;BME280;18191;51.288;12.390;2023-04-03T17:05:37;49026.75;;;-144.47;41.00
31585;BME280;18191;51.288;12.390;2023-04-03T17:10:28;49060.56;;;-144.47;42.00
31585;BME280;18191;51.288;12.390;2023-04-03T17:15:18;49050.63;;;-144.47;41.12
31585;BME280;18191;51.288;12.390;2023-04-03T17:20:09;49032.72;;;-144.47;42.35
31585;BME280;18191;51.288;12.390;2023-04-03T17:25:00;49060.56;;;-144.47;42.24
31585;BME280;18191;51.288;12.390;2023-04-03T17:29:50;49020.78;;;-144.47;43.70
31585;BME280;18191;51.288;12.390;2023-04-03T17:34:40;49044.66;;;-144.47;44.03
31585;BME280;18191;51.288;12.390;2023-04-03T17:39:31;49024.75;;;-144.47;43.96
31585;BME280;18191;51.288;12.390;2023-04-03T17:44:21;49110.28;;;-144.47;43.03
31585;BME280;18191;51.288;12.390;2023-04-03T17:49:11;49072.50;;;-144.47;44.28
31585;BME280;18191;51.288;12.390;2023-04-03T17:54:03;49052.59;;;-144.47;44.82
31585;BME280;18191;51.288;12.390;2023-04-03T17:58:54;49008.84;;;-144.47;43.50
31585;BME280;18191;51.288;12.390;2023-04-03T18:03:45;49050.63;;;-144.47;45.68
31585;BME280;18191;51.288;12.390;2023-04-03T18:08:37;49048.63;;;-144.47;45.78
31585;BME280;18191;51.288;12.390;2023-04-03T18:13:27;49062.56;;;-144.47;45.52
31585;BME280;18191;51.288;12.390;2023-04-03T18:18:18;49060.56;;;-144.47;45.20
31585;BME280;18191;51.288;12.390;2023-04-03T18:23:08;49022.75;;;-144.47;44.42
31585;BME280;18191;51.288;12.390;2023-04-03T18:27:58;49040.66;;;-144.47;44.24
31585;BME280;18191;51.288;12.390;2023-04-03T18:32:55;49024.75;;;-144.47;47.65
31585;BME280;18191;51.288;12.390;2023-04-03T18:37:45;49042.66;;;-144.47;43.63
31585;BME280;18191;51.288;12.390;2023-04-03T18:42:35;49012.81;;;-144.47;44.39
31585;BME280;18191;51.288;12.390;2023-04-03T18:47:25;49032.72;;;-144.47;45.36
31585;BME280;18191;51.288;12.390;2023-04-03T18:52:16;49036.69;;;-144.47;47.89
31585;BME280;18191;51.288;12.390;2023-04-03T18:57:06;49058.56;;;-144.47;41.32
31585;BME280;18191;51.288;12.390;2023-04-03T19:01:56;49070.50;;;-144.47;41.18
31585;BME280;18191;51.288;12.390;2023-04-03T19:06:49;49064.53;;;-144.47;41.02
31585;BME280;18191;51.288;12.390;2023-04-03T19:11:40;49046.63;;;-144.47;43.30
31585;BME280;18191;51.288;12.390;2023-04-03T19:16:33;49020.78;;;-144.47;42.38
31585;BME280;18191;51.288;12.390;2023-04-03T19:21:24;49080.44;;;-144.47;41.53
31585;BME280;18191;51.288;12.390;2023-04-03T19:26:14;49028.72;;;-144.47;42.46
31585;BME280;18191;51.288;12.390;2023-04-03T19:31:11;49040.66;;;-144.47;42.27
31585;BME280;18191;51.288;12.390;2023-04-03T19:36:05;49036.69;;;-144.47;42.00
31585;BME280;18191;51.288;12.390;2023-04-03T19:40:55;49044.66;;;-144.47;42.93
31585;BME280;18191;51.288;12.390;2023-04-03T19:45:46;49010.81;;;-144.47;43.05
31585;BME280;18191;51.288;12.390;2023-04-03T19:50:36;49032.72;;;-144.47;44.62
31585;BME280;18191;51.288;12.390;2023-04-03T19:55:27;49044.66;;;-144.47;42.93
31585;BME280;18191;51.288;12.390;2023-04-03T20:00:20;49024.75;;;-144.47;45.60
31585;BME280;18191;51.288;12.390;2023-04-03T20:05:11;49060.56;;;-144.47;43.54
31585;BME280;18191;51.288;12.390;2023-04-03T20:10:01;49050.63;;;-144.47;45.21
31585;BME280;18191;51.288;12.390;2023-04-03T20:14:51;49040.66;;;-144.47;46.77
31585;BME280;18191;51.288;12.390;2023-04-03T20:19:42;49052.59;;;-144.47;44.71
31585;BME280;18191;51.288;12.390;2023-04-03T20:24:32;49024.75;;;-144.47;47.12
31585;BME280;18191;51.288;12.390;2023-04-03T20:29:23;49036.69;;;-144.47;45.93
31585;BME280;18191;51.288;12.390;2023-04-03T20:34:13;49040.66;;;-144.47;43.77
31585;BME280;18191;51.288;12.390;2023-04-03T20:39:04;49072.50;;;-144.47;44.41
31585;BME280;18191;51.288;12.390;2023-04-03T20:43:55;49048.63;;;-144.47;44.15
31585;BME280;18191;51.288;12.390;2023-04-03T20:48:46;49064.53;;;-144.47;46.05
31585;BME280;18191;51.288;12.390;2023-04-03T20:53:37;49034.69;;;-144.47;46.88
31585;BME280;18191;51.288;12.390;2023-04-03T20:58:28;49036.69;;;-144.47;44.59
31585;BME280;18191;51.288;12.390;2023-04-03T21:03:22;49042.66;;;-144.47;46.77
31585;BME280;18191;51.288;12.390;2023-04-03T21:23:38;49052.59;;;-144.47;47.37
31585;BME280;18191;51.288;12.390;2023-04-03T21:28:29;49048.63;;;-144.47;48.01
31585;BME280;18191;51.288;12.390;2023-04-03T21:33:19;49028.72;;;-144.47;48.47
31585;BME280;18191;51.288;12.390;2023-04-03T21:38:09;49044.66;;;-144.47;52.17
31585;BME280;18191;51.288;12.390;2023-04-03T21:43:01;49064.53;;;-144.47;51.96
31585;BME280;18191;51.288;12.390;2023-04-03T21:47:51;49020.78;;;-144.47;51.77
31585;BME280;18191;51.288;12.390;2023-04-03T21:52:42;49056.59;;;-144.47;49.70
31585;BME280;18191;51.288;12.390;2023-04-03T21:57:33;49036.69;;;-144.47;50.32
31585;BME280;18191;51.288;12.390;2023-04-03T22:02:23;49052.59;;;-144.47;50.46
31585;BME280;18191;51.288;12.390;2023-04-03T22:07:15;49040.66;;;-144.47;52.10
31585;BME280;18191;51.288;12.390;2023-04-03T22:12:06;49062.56;;;-144.47;50.03
31585;BME280;18191;51.288;12.390;2023-04-03T22:17:00;49010.81;;;-144.47;50.92
31585;BME280;18191;51.288;12.390;2023-04-03T22:21:51;49050.63;;;-144.47;52.97
31585;BME280;18191;51.288;12.390;2023-04-03T22:26:41;49028.72;;;-144.47;51.46
31585;BME280;18191;51.288;12.390;2023-04-03T22:31:33;49028.72;;;-144.47;51.27
31585;BME280;18191;51.288;12.390;2023-04-03T22:36:25;49040.66;;;-144.47;53.54
31585;BME280;18191;51.288;12.390;2023-04-03T22:41:16;49068.50;;;-144.47;52.96
31585;BME280;18191;51.288;12.390;2023-04-03T22:46:07;49060.56;;;-144.47;53.12
31585;BME280;18191;51.288;12.390;2023-04-03T22:50:57;49064.53;;;-144.47;52.50
31585;BME280;18191;51.288;12.390;2023-04-03T22:55:52;49078.47;;;-144.47;54.41
31585;BME280;18191;51.288;12.390;2023-04-03T23:00:42;49056.59;;;-144.47;54.67
31585;BME280;18191;51.288;12.390;2023-04-03T23:05:32;49040.66;;;-144.47;54.08
31585;BME280;18191;51.288;12.390;2023-04-03T23:10:23;49032.72;;;-144.47;55.67
31585;BME280;18191;51.288;12.390;2023-04-03T23:15:13;49056.59;;;-144.47;55.47
31585;BME280;18191;51.288;12.390;2023-04-03T23:20:04;49056.59;;;-144.47;55.35
31585;BME280;18191;51.288;12.390;2023-04-03T23:24:56;49044.66;;;-144.47;57.37
31585;BME280;18191;51.288;12.390;2023-04-03T23:29:46;49080.44;;;-144.47;55.80
31585;BME280;18191;51.288;12.390;2023-04-03T23:34:37;49090.41;;;-144.47;57.30
31585;BME280;18191;51.288;12.390;2023-04-03T23:39:27;49024.75;;;-144.47;57.54
31585;BME280;18191;51.288;12.390;2023-04-03T23:44:17;49048.63;;;-144.47;58.08
31585;BME280;18191;51.288;12.390;2023-04-03T23:49:07;49032.72;;;-144.47;58.19
31585;BME280;18191;51.288;12.390;2023-04-03T23:53:58;49026.75;;;-144.47;59.30
31585;BME280;18191;51.288;12.390;2023-04-03T23:58:48;49094.38;;;-144.47;59.21
